createdAt,value
2017-05-21T00:00:17.860Z,7.00
2017-05-21T00:02:46.096Z,7.00
2017-05-21T00:05:14.357Z,7.00
2017-05-21T00:07:42.636Z,6.90
2017-05-21T00:10:10.879Z,6.90
2017-05-21T00:12:39.137Z,6.80
2017-05-21T00:15:07.394Z,6.80
2017-05-21T00:17:35.656Z,6.70
2017-05-21T00:20:03.893Z,6.70
2017-05-21T00:22:32.157Z,6.70
2017-05-21T00:25:00.411Z,6.70
2017-05-21T00:27:28.647Z,6.70
2017-05-21T00:29:56.913Z,6.70
2017-05-21T00:32:25.145Z,6.70
2017-05-21T00:34:53.388Z,6.60
2017-05-21T00:37:21.644Z,6.60
2017-05-21T00:39:49.878Z,6.70
2017-05-21T00:42:18.140Z,6.60
2017-05-21T00:44:46.390Z,6.60
2017-05-21T00:47:14.652Z,6.50
2017-05-21T00:49:42.893Z,6.50
2017-05-21T00:52:11.142Z,6.50
2017-05-21T00:54:39.409Z,6.50
2017-05-21T00:57:07.640Z,6.50
2017-05-21T00:59:35.899Z,6.50
2017-05-21T01:02:04.141Z,6.50
2017-05-21T01:04:32.401Z,6.50
2017-05-21T01:07:00.657Z,6.50
2017-05-21T01:09:28.916Z,6.40
2017-05-21T01:11:57.177Z,6.40
2017-05-21T01:14:25.413Z,6.30
2017-05-21T01:16:53.665Z,6.20
2017-05-21T01:19:21.901Z,6.30
2017-05-21T01:21:50.153Z,6.30
2017-05-21T01:24:18.386Z,6.20
2017-05-21T01:26:46.620Z,6.10
2017-05-21T01:29:14.877Z,6.10
2017-05-21T01:31:43.114Z,6.00
2017-05-21T01:34:11.371Z,6.20
2017-05-21T01:36:39.617Z,6.10
2017-05-21T01:39:07.881Z,6.10
2017-05-21T01:41:36.128Z,6.00
2017-05-21T01:44:04.374Z,5.90
2017-05-21T01:46:32.642Z,5.90
2017-05-21T01:49:00.876Z,5.90
2017-05-21T01:51:29.117Z,6.00
2017-05-21T01:53:57.374Z,6.00
2017-05-21T01:56:25.629Z,6.00
2017-05-21T01:58:53.884Z,6.00
2017-05-21T02:01:22.140Z,6.00
2017-05-21T02:03:50.389Z,6.00
2017-05-21T02:06:18.652Z,6.00
2017-05-21T02:08:46.881Z,6.00
2017-05-21T02:11:15.140Z,5.80
2017-05-21T02:13:43.393Z,5.80
2017-05-21T02:16:11.661Z,5.80
2017-05-21T02:18:39.901Z,5.90
2017-05-21T02:21:08.153Z,5.90
2017-05-21T02:23:36.421Z,5.80
2017-05-21T02:26:04.685Z,5.80
2017-05-21T02:28:32.938Z,5.70
2017-05-21T02:31:01.189Z,5.70
2017-05-21T02:33:29.445Z,5.70
2017-05-21T02:35:57.685Z,5.60
2017-05-21T02:38:25.933Z,5.70
2017-05-21T02:40:54.192Z,5.60
2017-05-21T02:43:22.445Z,5.60
2017-05-21T02:45:50.681Z,5.60
2017-05-21T02:48:18.922Z,5.70
2017-05-21T02:50:47.175Z,5.70
2017-05-21T02:53:15.420Z,5.60
2017-05-21T02:55:43.660Z,5.70
2017-05-21T02:58:11.922Z,5.70
2017-05-21T03:00:40.156Z,5.60
2017-05-21T03:03:08.408Z,5.80
2017-05-21T03:05:36.644Z,5.60
2017-05-21T03:08:04.921Z,5.60
2017-05-21T03:10:33.157Z,5.50
2017-05-21T03:13:01.403Z,5.50
2017-05-21T03:15:29.657Z,5.60
2017-05-21T03:17:57.898Z,5.50
2017-05-21T03:20:26.144Z,5.40
2017-05-21T03:22:54.379Z,5.50
2017-05-21T03:25:22.623Z,5.50
2017-05-21T03:27:50.885Z,5.40
2017-05-21T03:30:19.124Z,5.50
2017-05-21T03:32:47.376Z,5.50
2017-05-21T03:35:15.642Z,5.50
2017-05-21T03:37:43.893Z,5.50
2017-05-21T03:40:12.140Z,5.50
2017-05-21T03:42:40.378Z,5.40
2017-05-21T03:45:08.647Z,5.50
2017-05-21T03:47:36.880Z,5.50
2017-05-21T03:50:05.118Z,5.30
2017-05-21T03:52:33.376Z,5.40
2017-05-21T03:55:01.616Z,5.50
2017-05-21T03:57:29.864Z,5.40
2017-05-21T03:59:58.121Z,5.50
2017-05-21T04:02:26.352Z,5.50
2017-05-21T04:04:54.609Z,5.40
2017-05-21T04:07:22.844Z,5.50
2017-05-21T04:09:51.108Z,5.30
2017-05-21T04:12:19.348Z,5.40
2017-05-21T04:14:47.589Z,5.40
2017-05-21T04:17:15.853Z,5.50
2017-05-21T04:19:44.080Z,5.60
2017-05-21T04:22:12.336Z,5.60
2017-05-21T04:24:40.581Z,5.50
2017-05-21T04:27:08.869Z,5.50
2017-05-21T04:29:37.114Z,5.60
2017-05-21T04:32:05.356Z,5.60
2017-05-21T04:34:33.608Z,5.70
2017-05-21T04:37:01.858Z,5.70
2017-05-21T04:39:30.113Z,5.80
2017-05-21T04:41:58.355Z,5.80
2017-05-21T04:44:26.596Z,5.90
2017-05-21T04:46:54.858Z,5.90
2017-05-21T04:49:23.118Z,6.00
2017-05-21T04:51:51.356Z,6.00
2017-05-21T04:54:19.609Z,6.00
2017-05-21T04:56:47.868Z,6.00
2017-05-21T04:59:16.109Z,6.10
2017-05-21T05:01:44.360Z,6.20
2017-05-21T05:04:12.632Z,6.30
2017-05-21T05:06:40.869Z,6.40
2017-05-21T05:09:09.104Z,6.50
2017-05-21T05:11:37.360Z,6.60
2017-05-21T05:14:05.609Z,6.70
2017-05-21T05:16:33.869Z,6.80
2017-05-21T05:19:02.109Z,6.90
2017-05-21T05:21:30.374Z,7.00
2017-05-21T05:23:58.614Z,7.00
2017-05-21T05:26:26.864Z,7.10
2017-05-21T05:28:55.104Z,7.20
2017-05-21T05:31:23.337Z,7.30
2017-05-21T05:33:51.604Z,7.40
2017-05-21T05:36:19.857Z,7.60
2017-05-21T05:38:48.120Z,7.60
2017-05-21T05:41:16.368Z,7.70
2017-05-21T05:43:44.631Z,7.70
2017-05-21T05:46:12.882Z,7.80
2017-05-21T05:48:41.127Z,8.00
2017-05-21T05:51:09.401Z,8.20
2017-05-21T05:53:37.636Z,8.30
2017-05-21T05:56:05.877Z,8.50
2017-05-21T05:58:34.129Z,8.60
2017-05-21T06:01:02.368Z,8.80
2017-05-21T06:03:30.625Z,9.00
2017-05-21T06:05:58.859Z,9.20
2017-05-21T06:08:27.118Z,9.50
2017-05-21T06:10:55.355Z,9.70
2017-05-21T06:13:23.606Z,9.90
2017-05-21T06:15:51.837Z,10.10
2017-05-21T06:18:20.102Z,10.40
2017-05-21T06:20:48.349Z,10.70
2017-05-21T06:23:16.586Z,10.90
2017-05-21T06:25:44.848Z,11.20
2017-05-21T06:28:13.088Z,11.40
2017-05-21T06:30:41.368Z,11.60
2017-05-21T06:33:09.617Z,11.90
2017-05-21T06:35:37.881Z,12.20
2017-05-21T06:38:06.121Z,12.60
2017-05-21T06:40:34.365Z,12.90
2017-05-21T06:43:02.640Z,13.30
2017-05-21T06:45:30.886Z,13.90
2017-05-21T06:47:59.151Z,14.80
2017-05-21T06:50:27.408Z,15.60
2017-05-21T06:52:55.653Z,16.40
2017-05-21T06:55:23.921Z,17.10
2017-05-21T06:57:53.163Z,17.60
2017-05-21T07:00:21.430Z,17.70
2017-05-21T07:02:49.704Z,18.20
2017-05-21T07:05:17.947Z,18.90
2017-05-21T07:07:45.464Z,18.90
2017-05-21T07:10:13.717Z,19.30
2017-05-21T07:12:45.081Z,19.70
2017-05-21T07:15:13.512Z,19.60
2017-05-21T07:17:41.789Z,19.30
2017-05-21T07:20:10.039Z,19.60
2017-05-21T07:22:38.285Z,20.50
2017-05-21T07:25:06.544Z,21.00
2017-05-21T07:27:34.801Z,21.60
2017-05-21T07:30:03.071Z,22.10
2017-05-21T07:32:31.402Z,22.10
2017-05-21T07:35:03.097Z,22.70
2017-05-21T07:37:31.357Z,22.50
2017-05-21T07:39:59.605Z,23.00
2017-05-21T07:42:27.891Z,22.80
2017-05-21T07:44:56.148Z,22.20
2017-05-21T07:47:24.393Z,22.60
2017-05-21T07:49:52.653Z,23.10
2017-05-21T07:52:20.901Z,23.60
2017-05-21T07:54:49.169Z,23.50
2017-05-21T07:57:17.411Z,23.90
2017-05-21T07:59:45.681Z,24.00
2017-05-21T08:02:13.926Z,24.10
2017-05-21T08:04:42.164Z,24.80
2017-05-21T08:07:10.429Z,25.20
2017-05-21T08:09:38.685Z,25.50
2017-05-21T08:12:06.966Z,23.00
2017-05-21T08:14:36.164Z,23.90
2017-05-21T08:17:04.426Z,23.20
2017-05-21T08:19:32.693Z,24.30
2017-05-21T08:22:00.965Z,25.30
2017-05-21T08:24:29.213Z,25.50
2017-05-21T08:26:57.469Z,25.30
2017-05-21T08:29:25.708Z,25.80
2017-05-21T08:31:53.963Z,26.50
2017-05-21T08:34:22.225Z,27.20
2017-05-21T08:36:50.484Z,26.30
2017-05-21T08:39:18.731Z,27.40
2017-05-21T08:41:46.980Z,28.00
2017-05-21T08:44:15.240Z,28.50
2017-05-21T08:46:43.498Z,29.10
2017-05-21T08:49:11.768Z,29.90
2017-05-21T08:51:40.012Z,29.30
2017-05-21T08:54:09.987Z,28.70
2017-05-21T08:56:38.780Z,26.20
2017-05-21T08:59:07.597Z,25.30
2017-05-21T09:01:36.956Z,25.90
2017-05-21T09:04:06.690Z,26.70
2017-05-21T09:06:35.163Z,27.30
2017-05-21T09:09:04.141Z,28.60
2017-05-21T09:11:32.662Z,29.90
2017-05-21T09:14:01.955Z,29.50
2017-05-21T09:16:30.212Z,27.10
2017-05-21T09:18:58.476Z,26.70
2017-05-21T09:21:26.707Z,28.50
2017-05-21T09:23:54.969Z,30.40
2017-05-21T09:26:23.220Z,30.70
2017-05-21T09:28:51.516Z,30.40
2017-05-21T09:31:20.039Z,30.20
2017-05-21T09:33:48.301Z,31.10
2017-05-21T09:36:16.588Z,30.40
2017-05-21T09:38:44.862Z,27.90
2017-05-21T09:41:13.112Z,25.00
2017-05-21T09:43:41.356Z,24.80
2017-05-21T09:46:09.625Z,27.00
2017-05-21T09:48:37.869Z,28.70
2017-05-21T09:51:06.128Z,30.90
2017-05-21T09:53:34.379Z,31.40
2017-05-21T09:56:02.624Z,32.30
2017-05-21T09:58:30.890Z,33.30
2017-05-21T10:00:59.128Z,33.90
2017-05-21T10:03:27.361Z,34.00
2017-05-21T10:05:55.616Z,33.40
2017-05-21T10:08:23.861Z,33.30
2017-05-21T10:10:52.129Z,33.00
2017-05-21T10:13:20.374Z,33.00
2017-05-21T10:15:48.693Z,33.30
2017-05-21T10:18:16.945Z,33.40
2017-05-21T10:20:45.190Z,33.70
2017-05-21T10:23:13.469Z,33.70
2017-05-21T10:25:41.725Z,31.80
2017-05-21T10:28:10.526Z,32.10
2017-05-21T10:30:38.797Z,31.90
2017-05-21T10:33:07.045Z,30.30
2017-05-21T10:35:35.305Z,27.70
2017-05-21T10:38:03.544Z,27.20
2017-05-21T10:40:31.811Z,28.70
2017-05-21T10:43:00.053Z,28.50
2017-05-21T10:45:28.319Z,27.00
2017-05-21T10:47:56.609Z,26.90
2017-05-21T10:50:24.857Z,28.20
2017-05-21T10:52:53.123Z,28.30
2017-05-21T10:55:21.375Z,26.80
2017-05-21T10:57:49.621Z,24.20
2017-05-21T11:00:17.885Z,23.10
2017-05-21T11:02:46.133Z,23.30
2017-05-21T11:05:14.381Z,23.60
2017-05-21T11:07:42.650Z,23.40
2017-05-21T11:10:10.916Z,24.20
2017-05-21T11:12:39.169Z,24.00
2017-05-21T11:15:07.432Z,23.10
2017-05-21T11:17:35.680Z,22.60
2017-05-21T11:20:03.921Z,21.80
2017-05-21T11:22:32.198Z,21.50
2017-05-21T11:25:00.453Z,21.00
2017-05-21T11:27:28.717Z,21.20
2017-05-21T11:29:56.969Z,21.30
2017-05-21T11:32:27.471Z,22.10
2017-05-21T11:34:55.887Z,22.70
2017-05-21T11:37:24.157Z,22.20
2017-05-21T11:39:52.422Z,22.20
2017-05-21T11:42:20.664Z,22.20
2017-05-21T11:44:50.972Z,22.20
2017-05-21T11:47:19.222Z,22.50
2017-05-21T11:49:47.501Z,22.80
2017-05-21T11:52:15.754Z,22.90
2017-05-21T11:54:44.042Z,22.50
2017-05-21T11:57:12.291Z,21.60
2017-05-21T11:59:40.557Z,21.10
2017-05-21T12:02:08.812Z,20.80
2017-05-21T12:04:37.069Z,20.70
2017-05-21T12:07:05.489Z,21.10
2017-05-21T12:09:33.761Z,21.20
2017-05-21T12:12:02.012Z,21.00
2017-05-21T12:14:30.289Z,21.40
2017-05-21T12:16:58.553Z,21.80
2017-05-21T12:19:26.803Z,21.20
2017-05-21T12:21:55.077Z,20.90
2017-05-21T12:24:23.329Z,20.50
2017-05-21T12:26:51.592Z,20.50
2017-05-21T12:29:19.854Z,19.90
2017-05-21T12:31:48.128Z,20.00
2017-05-21T12:34:16.381Z,20.60
2017-05-21T12:36:44.658Z,21.00
2017-05-21T12:39:12.894Z,22.10
2017-05-21T12:41:41.157Z,21.60
2017-05-21T12:44:09.431Z,20.80
2017-05-21T12:46:37.678Z,20.00
2017-05-21T12:49:05.947Z,20.50
2017-05-21T12:51:34.221Z,21.40
2017-05-21T12:54:02.465Z,22.10
2017-05-21T12:56:30.763Z,22.70
2017-05-21T12:58:59.008Z,21.80
2017-05-21T13:01:27.282Z,21.60
2017-05-21T13:03:55.525Z,21.20
2017-05-21T13:06:23.788Z,21.40
2017-05-21T13:08:52.033Z,21.60
2017-05-21T13:11:20.351Z,22.20
2017-05-21T13:13:48.613Z,22.60
2017-05-21T13:16:16.869Z,22.40
2017-05-21T13:18:45.138Z,22.30
2017-05-21T13:21:13.416Z,21.20
2017-05-21T13:23:41.672Z,21.10
2017-05-21T13:26:09.917Z,21.50
2017-05-21T13:28:38.178Z,20.80
2017-05-21T13:31:06.445Z,20.90
2017-05-21T13:33:34.812Z,21.30
2017-05-21T13:36:03.060Z,21.30
2017-05-21T13:38:31.320Z,20.50
2017-05-21T13:40:59.593Z,20.10
2017-05-21T13:43:27.845Z,20.60
2017-05-21T13:45:56.177Z,20.80
2017-05-21T13:48:24.449Z,21.10
2017-05-21T13:50:52.692Z,21.80
2017-05-21T13:53:20.975Z,22.30
2017-05-21T13:55:49.217Z,22.40
2017-05-21T13:58:17.460Z,22.50
2017-05-21T14:00:45.721Z,21.80
2017-05-21T14:03:13.974Z,21.60
2017-05-21T14:05:42.244Z,21.40
2017-05-21T14:08:10.485Z,21.30
2017-05-21T14:10:38.757Z,20.80
2017-05-21T14:13:07.009Z,20.50
2017-05-21T14:15:35.316Z,20.50
2017-05-21T14:18:03.560Z,20.80
2017-05-21T14:20:31.809Z,21.10
2017-05-21T14:23:01.324Z,21.80
2017-05-21T14:25:29.569Z,21.90
2017-05-21T14:27:57.817Z,21.80
2017-05-21T14:30:27.075Z,21.80
2017-05-21T14:32:55.322Z,22.30
2017-05-21T14:35:24.476Z,22.20
2017-05-21T14:37:52.720Z,21.40
2017-05-21T14:40:20.970Z,21.60
2017-05-21T14:42:49.239Z,21.60
2017-05-21T14:45:17.492Z,22.10
2017-05-21T14:47:45.773Z,22.20
2017-05-21T14:50:14.021Z,22.30
2017-05-21T14:52:42.273Z,21.90
2017-05-21T14:55:10.549Z,21.40
2017-05-21T14:57:38.794Z,21.10
2017-05-21T15:00:07.078Z,21.50
2017-05-21T15:02:35.330Z,21.70
2017-05-21T15:05:03.576Z,21.40
2017-05-21T15:07:31.847Z,21.30
2017-05-21T15:10:00.104Z,21.70
2017-05-21T15:12:28.378Z,21.60
2017-05-21T15:14:56.676Z,21.20
2017-05-21T15:17:24.941Z,20.60
2017-05-21T15:19:53.185Z,20.90
2017-05-21T15:22:21.443Z,21.00
2017-05-21T15:24:49.685Z,20.60
2017-05-21T15:27:17.960Z,20.60
2017-05-21T15:29:46.208Z,20.80
2017-05-21T15:32:14.473Z,20.80
2017-05-21T15:34:42.716Z,21.00
2017-05-21T15:37:10.984Z,20.90
2017-05-21T15:39:39.241Z,20.70
2017-05-21T15:42:07.516Z,20.80
2017-05-21T15:44:35.762Z,20.50
2017-05-21T15:47:04.284Z,20.30
2017-05-21T15:49:32.551Z,20.60
2017-05-21T15:52:00.806Z,21.10
2017-05-21T15:54:29.073Z,21.50
2017-05-21T15:56:57.340Z,21.50
2017-05-21T15:59:25.645Z,21.40
2017-05-21T16:01:53.884Z,21.10
2017-05-21T16:04:22.161Z,20.40
2017-05-21T16:06:50.413Z,20.30
2017-05-21T16:09:18.677Z,19.90
2017-05-21T16:11:46.923Z,19.80
2017-05-21T16:14:15.207Z,19.80
2017-05-21T16:16:43.477Z,20.10
2017-05-21T16:19:11.751Z,20.50
2017-05-21T16:21:41.249Z,20.50
2017-05-21T16:24:09.528Z,20.80
2017-05-21T16:26:37.785Z,20.90
2017-05-21T16:29:06.053Z,20.60
2017-05-21T16:31:34.337Z,20.60
2017-05-21T16:34:02.613Z,20.60
2017-05-21T16:36:30.903Z,20.80
2017-05-21T16:38:59.153Z,20.70
2017-05-21T16:41:27.405Z,20.50
2017-05-21T16:43:55.693Z,20.40
2017-05-21T16:46:23.981Z,20.20
2017-05-21T16:48:52.241Z,19.90
2017-05-21T16:51:20.512Z,19.90
2017-05-21T16:53:48.781Z,19.80
2017-05-21T16:56:17.064Z,19.60
2017-05-21T16:58:45.305Z,19.30
2017-05-21T17:01:13.581Z,19.40
2017-05-21T17:03:41.831Z,19.40
2017-05-21T17:06:10.121Z,19.10
2017-05-21T17:08:38.377Z,18.90
2017-05-21T17:11:06.627Z,18.90
2017-05-21T17:13:34.940Z,18.80
2017-05-21T17:16:03.213Z,18.80
2017-05-21T17:18:31.468Z,18.80
2017-05-21T17:20:59.714Z,18.90
2017-05-21T17:23:27.996Z,18.90
2017-05-21T17:25:56.241Z,19.00
2017-05-21T17:28:24.492Z,19.00
2017-05-21T17:30:52.760Z,19.00
2017-05-21T17:33:21.081Z,18.80
2017-05-21T17:35:49.326Z,18.50
2017-05-21T17:38:17.588Z,18.50
2017-05-21T17:40:45.892Z,18.40
2017-05-21T17:43:14.181Z,18.30
2017-05-21T17:45:42.459Z,18.30
2017-05-21T17:48:10.696Z,18.20
2017-05-21T17:50:38.944Z,18.10
2017-05-21T17:53:07.232Z,18.00
2017-05-21T17:55:35.490Z,17.90
2017-05-21T17:58:03.741Z,17.70
2017-05-21T18:00:32.016Z,17.70
2017-05-21T18:03:00.262Z,17.60
2017-05-21T18:05:28.529Z,17.50
2017-05-21T18:07:56.853Z,17.40
2017-05-21T18:10:25.138Z,17.20
2017-05-21T18:12:53.385Z,17.20
2017-05-21T18:15:21.649Z,17.10
2017-05-21T18:17:49.901Z,17.10
2017-05-21T18:20:18.182Z,17.10
2017-05-21T18:22:46.446Z,17.20
2017-05-21T18:25:14.713Z,17.30
2017-05-21T18:27:42.983Z,17.50
2017-05-21T18:30:11.230Z,17.30
2017-05-21T18:32:39.509Z,17.30
2017-05-21T18:35:07.784Z,17.30
2017-05-21T18:37:36.049Z,17.20
2017-05-21T18:40:04.327Z,17.20
2017-05-21T18:42:32.572Z,17.20
2017-05-21T18:45:00.858Z,17.00
2017-05-21T18:47:29.096Z,16.90
2017-05-21T18:49:57.375Z,16.90
2017-05-21T18:52:26.085Z,16.80
2017-05-21T18:54:54.354Z,16.70
2017-05-21T18:57:22.641Z,16.70
2017-05-21T18:59:50.889Z,16.60
2017-05-21T19:02:19.129Z,16.50
2017-05-21T19:04:47.421Z,16.50
2017-05-21T19:07:15.681Z,16.40
2017-05-21T19:09:43.955Z,16.30
2017-05-21T19:12:12.212Z,16.30
2017-05-21T19:14:40.486Z,16.10
2017-05-21T19:17:08.750Z,16.00
2017-05-21T19:19:37.042Z,15.80
2017-05-21T19:22:05.316Z,15.80
2017-05-21T19:24:33.609Z,15.80
2017-05-21T19:27:01.890Z,15.70
2017-05-21T19:29:30.145Z,15.70
2017-05-21T19:31:58.394Z,15.70
2017-05-21T19:34:26.678Z,15.70
2017-05-21T19:36:54.926Z,15.70
2017-05-21T19:39:23.188Z,15.60
2017-05-21T19:41:51.437Z,15.70
2017-05-21T19:44:19.702Z,15.70
2017-05-21T19:46:47.956Z,15.70
2017-05-21T19:49:16.213Z,15.70
2017-05-21T19:51:44.492Z,15.80
2017-05-21T19:54:12.762Z,15.80
2017-05-21T19:56:41.049Z,15.80
2017-05-21T19:59:09.322Z,15.80
2017-05-21T20:01:37.593Z,15.80
2017-05-21T20:04:05.848Z,15.90
2017-05-21T20:06:34.137Z,15.80
2017-05-21T20:09:02.388Z,15.80
2017-05-21T20:11:30.644Z,15.90
2017-05-21T20:13:58.904Z,15.80
2017-05-21T20:16:27.171Z,15.80
2017-05-21T20:18:55.453Z,15.80
2017-05-21T20:21:23.716Z,15.70
2017-05-21T20:23:52.012Z,15.70
2017-05-21T20:26:20.292Z,15.70
2017-05-21T20:28:48.557Z,15.60
2017-05-21T20:31:16.801Z,15.70
2017-05-21T20:33:45.077Z,15.60
2017-05-21T20:36:13.325Z,15.60
2017-05-21T20:38:41.588Z,15.60
2017-05-21T20:41:09.832Z,15.60
2017-05-21T20:43:38.101Z,15.50
2017-05-21T20:46:06.346Z,15.50
2017-05-21T20:48:34.605Z,15.50
2017-05-21T20:51:02.868Z,15.60
2017-05-21T20:53:31.120Z,15.60
2017-05-21T20:55:59.401Z,15.60
2017-05-21T20:58:27.649Z,15.50
2017-05-21T21:00:55.926Z,15.50
2017-05-21T21:03:24.181Z,15.50
2017-05-21T21:05:52.449Z,15.50
2017-05-21T21:08:20.713Z,15.40
2017-05-21T21:10:48.985Z,15.40
2017-05-21T21:13:17.235Z,15.30
2017-05-21T21:15:45.538Z,15.30
2017-05-21T21:18:13.780Z,15.30
2017-05-21T21:20:42.049Z,15.20
2017-05-21T21:23:10.298Z,15.10
2017-05-21T21:25:38.553Z,15.20
2017-05-21T21:28:06.806Z,15.10
2017-05-21T21:30:35.044Z,15.10
2017-05-21T21:33:03.305Z,15.20
2017-05-21T21:35:31.557Z,15.10
2017-05-21T21:37:59.829Z,15.10
2017-05-21T21:40:28.073Z,15.10
2017-05-21T21:42:56.313Z,15.10
2017-05-21T21:45:24.590Z,15.10
2017-05-21T21:47:52.855Z,15.00
2017-05-21T21:50:21.122Z,15.00
2017-05-21T21:52:49.374Z,15.00
2017-05-21T21:55:17.644Z,15.00
2017-05-21T21:57:45.890Z,15.00
2017-05-21T22:00:14.159Z,14.90
2017-05-21T22:02:42.433Z,15.00
2017-05-21T22:05:10.685Z,15.00
2017-05-21T22:07:38.957Z,14.90
2017-05-21T22:10:07.208Z,15.00
2017-05-21T22:12:35.469Z,15.00
2017-05-21T22:15:03.715Z,14.90
2017-05-21T22:17:31.974Z,14.90
2017-05-21T22:20:00.231Z,14.90
2017-05-21T22:22:28.476Z,14.90
2017-05-21T22:24:56.748Z,14.90
2017-05-21T22:27:24.989Z,14.80
2017-05-21T22:29:53.232Z,14.80
2017-05-21T22:32:21.496Z,14.80
2017-05-21T22:34:49.745Z,14.80
2017-05-21T22:37:18.012Z,14.90
2017-05-21T22:39:46.269Z,14.90
2017-05-21T22:42:14.549Z,15.00
2017-05-21T22:44:42.809Z,15.00
2017-05-21T22:47:11.056Z,15.00
2017-05-21T22:49:39.321Z,14.90
2017-05-21T22:52:07.585Z,14.80
2017-05-21T22:54:35.847Z,14.90
2017-05-21T22:57:04.096Z,14.90
2017-05-21T22:59:32.338Z,14.80
2017-05-21T23:02:00.608Z,14.70
2017-05-21T23:04:28.856Z,14.70
2017-05-21T23:06:57.123Z,14.70
2017-05-21T23:09:25.393Z,14.70
2017-05-21T23:11:53.653Z,14.70
2017-05-21T23:14:21.928Z,14.70
2017-05-21T23:16:50.237Z,14.70
2017-05-21T23:19:18.501Z,14.60
2017-05-21T23:21:46.748Z,14.60
2017-05-21T23:24:15.031Z,14.60
2017-05-21T23:26:43.286Z,14.70
2017-05-21T23:29:11.532Z,14.60
2017-05-21T23:31:39.789Z,14.60
2017-05-21T23:34:08.033Z,14.50
2017-05-21T23:36:36.294Z,14.40
2017-05-21T23:39:04.549Z,14.40
2017-05-21T23:41:32.812Z,14.40
2017-05-21T23:44:01.057Z,14.30
2017-05-21T23:46:29.384Z,14.30
2017-05-21T23:48:57.640Z,14.30
2017-05-21T23:51:25.881Z,14.20
2017-05-21T23:53:54.147Z,14.20
2017-05-21T23:56:22.384Z,14.20
2017-05-21T23:58:50.661Z,14.10
